Bartlesville, OK (74003)

1:42 AM CDT on September 29, 2016 (GMT -0500)
Bartlesville - Osage County | | Change Station

Elev 873 ft 36.76 °N, 96.04 °W | Updated 2 minutes ago

Clear
Clear
57.0 °F
Feels Like 57.0 °F
N
4.0
Wind Variable Wind from NE
Gusts 4.0 mph

Today
High -- | Low -- °F
--% Chance of Precip.
Yesterday
High -- | Low -- °F
Precip. -- in
Pressure 30.24 in
Visibility 10.0 miles
Clouds Clear
Dew Point 50 °F
Humidity 77%
Rainfall 0.00 in
Snow Depth Not available.
7:18 AM 7:09 PM
Waning Crescent, 3% visible
METAR KBVO 290553Z AUTO 01007KT 10SM CLR 13/09 A3026 RMK AO2 SLP240 T01280089 10206 20128 402670128 51016
Pressure 30.24 in
Visibility 10.0 miles
Clouds Clear
Dew Point 50 °F
Humidity 77%
Rainfall 0.00 in
Snow Depth Not available.
7:18 AM 7:09 PM
Waning Crescent, 3% visible
METAR KBVO 290553Z AUTO 01007KT 10SM CLR 13/09 A3026 RMK AO2 SLP240 T01280089 10206 20128 402670128 51016

10-Day Weather Forecast

Almanac

Astronomy

Sep. 29, 2016 Rise Set
Actual Time
Civil Twilight
Nautical Twilight
Astronomical Twilight
Moon
Length of Visible Light
Length of Day
Tomorrow will be .
, % of the Moon is Illuminated

Today's Extremes

State Highs State Lows

Community

WunderPhotos

Upload Photos

1,942,446 photos uploaded!

WunderBlog® & News

Nearby

Air Quality

  Air Quality AQ Index Pollutant
Not available.

Snow Depth

Station Depth Elevation

Earthquake Activity

City Distance Mag. Time & Date
Minimum magnitude displayed is 2.5.

Coastal Water Temperatures

Place Temperature

Stations

Nearby Weather Stations

Station Location Temp. Windchill Dew Point Humidity Wind Precip. Elev Updated Type
                   

Watches & Warnings

There are currently no watches in effect.